INFORMAÇÕES DO AERODROMO
Icao Aerodromo CYCP Nome do Aerodromo Blue River Airport Cidade Blue River
Código GPS CYCP Elevação Média 2240 ft Tipo de Aerodromo Aeroporto Médio Porte

INFORMAÇÃO DE PISTA
Pista 01 Comprimento da Pista 5000 ft Largura da Pista 60 ft
Elevação da Pista 0 ft Distância de Area de Escape da Pista 0 ft Orientação da Pista 32
Pista 19 Comprimento da Pista 5000 ft Largura da Pista 60 ft
Elevação da Pista 0 ft Distância de Area de Escape da Pista 0 ft Orientação da Pista 212

FREQUÊNCIAS DO AERODROMO
Tipo ATF Nome ATF Frequência 123.2 MHZ

INFORMAÇÕES DE NAVEGAÇÃO PRÓXIMO AO AERODROMO

Informações de Meteorologia(METAR atual)
METAR DE CYCP
ADDS - METARS form results

(1832 UTC 22 August 2019)
Data provider http://aviationweather.gov/metar/data/
 
METAR text: CYCP 221800Z 16006KT 020V180 15SM FEW065 FEW080 18/06 A3004 RMK CU1CU1 SLP176 DENSITY ALT 3100FT
Conditions at: CYCP (BLUE RIVER (MAN), BC, CA) observed 1800 UTC 22 August 2019
Temperature: 18.0°C (64°F)
Dewpoint: 6.0°C (43°F) [RH = 45%]
Pressure (altimeter): 30.04 inches Hg (1017.4 mb)
[Sea-level pressure: 1017.6 mb]
Winds: from the SSE (160 degrees) at 7 MPH (6 knots; 3.1 m/s)
Visibility: 15 miles (24 km)
Ceiling: at least 12,000 feet AGL
Clouds: few clouds at 6500 feet AGL
few clouds at 8000 feet AGL
Weather: no significant weather observed at this time

MAPA DO AERODROMO


Desenvolvido por Virtual Airlines Manager




Modificado por Servidor Brasil Amigos